createdAt,value
2023-04-16T00:00:41.565Z,474.0000
2023-04-16T00:01:49.736Z,475.0000
2023-04-16T00:02:57.821Z,472.0000
2023-04-16T00:04:06.011Z,474.0000
2023-04-16T00:05:13.780Z,477.0000
2023-04-16T00:06:21.885Z,481.0000
2023-04-16T00:07:29.912Z,480.0000
2023-04-16T00:08:37.933Z,478.0000
2023-04-16T00:09:46.036Z,478.0000
2023-04-16T00:10:54.162Z,478.0000
2023-04-16T00:12:02.180Z,479.0000
2023-04-16T00:13:10.254Z,478.0000
2023-04-16T00:14:18.303Z,485.0000
2023-04-16T00:15:26.334Z,482.0000
2023-04-16T00:16:34.700Z,484.0000
2023-04-16T00:17:42.426Z,480.0000
2023-04-16T00:18:50.628Z,479.0000
2023-04-16T00:19:58.611Z,463.0000
2023-04-16T00:21:06.693Z,480.0000
2023-04-16T00:22:14.934Z,483.0000
2023-04-16T00:23:22.707Z,479.0000
2023-04-16T00:24:30.880Z,476.0000
2023-04-16T00:25:38.932Z,482.0000
2023-04-16T00:26:46.999Z,479.0000
2023-04-16T00:27:55.137Z,477.0000
2023-04-16T00:29:03.045Z,479.0000
2023-04-16T00:30:11.278Z,488.0000
2023-04-16T00:31:19.286Z,479.0000
2023-04-16T00:32:27.233Z,479.0000
2023-04-16T00:33:35.425Z,481.0000
2023-04-16T00:34:43.354Z,481.0000
2023-04-16T00:35:51.501Z,486.0000
2023-04-16T00:36:59.582Z,470.0000
2023-04-16T00:38:07.640Z,474.0000
2023-04-16T00:39:15.684Z,477.0000
2023-04-16T00:40:23.663Z,479.0000
2023-04-16T00:41:31.835Z,479.0000
2023-04-16T00:42:40.019Z,480.0000
2023-04-16T00:43:47.925Z,483.0000
2023-04-16T00:44:56.298Z,482.0000
2023-04-16T00:46:04.132Z,486.0000
2023-04-16T00:47:12.231Z,480.0000
2023-04-16T00:48:20.227Z,480.0000
2023-04-16T00:49:28.475Z,478.0000
2023-04-16T00:50:36.343Z,482.0000
2023-04-16T00:51:44.593Z,482.0000
2023-04-16T00:52:52.433Z,472.0000
2023-04-16T00:54:00.547Z,479.0000
2023-04-16T00:55:08.595Z,483.0000
2023-04-16T00:56:17.791Z,483.0000
2023-04-16T00:57:24.763Z,483.0000
2023-04-16T00:58:32.802Z,482.0000
2023-04-16T00:59:40.825Z,479.0000
2023-04-16T01:00:49.039Z,480.0000
2023-04-16T01:01:57.202Z,477.0000
2023-04-16T01:03:05.276Z,478.0000
2023-04-16T01:04:13.220Z,475.0000
2023-04-16T01:05:21.029Z,482.0000
2023-04-16T01:06:29.229Z,476.0000
2023-04-16T01:07:37.358Z,477.0000
2023-04-16T01:08:45.567Z,481.0000
2023-04-16T01:09:53.435Z,483.0000
2023-04-16T01:11:01.485Z,483.0000
2023-04-16T01:12:09.443Z,481.0000
2023-04-16T01:13:17.609Z,485.0000
2023-04-16T01:14:25.752Z,489.0000
2023-04-16T01:15:33.782Z,488.0000
2023-04-16T01:16:41.997Z,481.0000
2023-04-16T01:17:49.894Z,485.0000
2023-04-16T01:18:57.977Z,482.0000
2023-04-16T01:20:06.018Z,483.0000
2023-04-16T01:21:14.035Z,472.0000
2023-04-16T01:22:22.163Z,480.0000
2023-04-16T01:23:30.136Z,483.0000
2023-04-16T01:24:38.248Z,482.0000
2023-04-16T01:25:46.440Z,479.0000
2023-04-16T01:26:54.387Z,483.0000
2023-04-16T01:28:02.466Z,484.0000
2023-04-16T01:29:10.741Z,478.0000
2023-04-16T01:30:18.653Z,477.0000
2023-04-16T01:31:26.841Z,474.0000
2023-04-16T01:32:34.740Z,474.0000
2023-04-16T01:33:42.633Z,476.0000
2023-04-16T01:34:50.847Z,489.0000
2023-04-16T01:35:58.896Z,491.0000
2023-04-16T01:37:06.877Z,500.0000
2023-04-16T01:38:15.047Z,490.0000
2023-04-16T01:39:23.050Z,475.0000
2023-04-16T01:40:31.138Z,494.0000
2023-04-16T01:41:39.261Z,490.0000
2023-04-16T01:42:47.339Z,484.0000
2023-04-16T01:43:55.334Z,478.0000
2023-04-16T01:45:03.562Z,475.0000
2023-04-16T01:46:11.758Z,474.0000
2023-04-16T01:47:19.548Z,476.0000
2023-04-16T01:48:27.475Z,475.0000
2023-04-16T01:49:35.634Z,478.0000
2023-04-16T01:50:43.807Z,474.0000
2023-04-16T01:51:51.784Z,472.0000
2023-04-16T01:52:59.812Z,478.0000
2023-04-16T01:54:07.796Z,480.0000
2023-04-16T01:55:15.971Z,479.0000
2023-04-16T01:56:24.061Z,479.0000
2023-04-16T01:57:32.052Z,474.0000
2023-04-16T01:58:40.132Z,478.0000
2023-04-16T01:59:48.088Z,482.0000
2023-04-16T02:00:56.327Z,481.0000
2023-04-16T02:02:04.369Z,483.0000
2023-04-16T02:03:12.588Z,503.0000
2023-04-16T02:04:20.469Z,492.0000
2023-04-16T02:05:28.423Z,484.0000
2023-04-16T02:06:36.554Z,491.0000
2023-04-16T02:07:44.705Z,491.0000
2023-04-16T02:08:52.674Z,489.0000
2023-04-16T02:10:00.780Z,486.0000
2023-04-16T02:11:08.765Z,483.0000
2023-04-16T02:12:16.765Z,475.0000
2023-04-16T02:13:24.937Z,478.0000
2023-04-16T02:14:33.127Z,481.0000
2023-04-16T02:15:41.168Z,480.0000
2023-04-16T02:16:49.128Z,485.0000
2023-04-16T02:17:57.291Z,484.0000
2023-04-16T02:19:05.284Z,484.0000
2023-04-16T02:20:13.332Z,481.0000
2023-04-16T02:21:21.404Z,483.0000
2023-04-16T02:22:29.388Z,485.0000
2023-04-16T02:23:37.513Z,489.0000
2023-04-16T02:24:45.717Z,485.0000
2023-04-16T02:25:53.717Z,484.0000
2023-04-16T02:27:01.754Z,482.0000
2023-04-16T02:28:09.844Z,484.0000
2023-04-16T02:29:17.855Z,482.0000
2023-04-16T02:30:25.935Z,488.0000
2023-04-16T02:31:33.989Z,496.0000
2023-04-16T02:32:42.154Z,487.0000
2023-04-16T02:33:50.137Z,485.0000
2023-04-16T02:34:58.028Z,482.0000
2023-04-16T02:36:06.193Z,481.0000
2023-04-16T02:37:14.273Z,483.0000
2023-04-16T02:38:22.356Z,482.0000
2023-04-16T02:39:30.444Z,480.0000
2023-04-16T02:40:38.530Z,483.0000
2023-04-16T02:41:46.564Z,483.0000
2023-04-16T02:42:54.610Z,485.0000
2023-04-16T02:44:02.696Z,485.0000
2023-04-16T02:45:10.851Z,484.0000
2023-04-16T02:46:18.878Z,491.0000
2023-04-16T02:47:26.976Z,487.0000
2023-04-16T02:48:34.818Z,483.0000
2023-04-16T02:49:42.993Z,477.0000
2023-04-16T02:50:51.066Z,486.0000
2023-04-16T02:51:59.145Z,497.0000
2023-04-16T02:53:07.184Z,499.0000
2023-04-16T02:54:15.125Z,495.0000
2023-04-16T02:55:23.309Z,493.0000
2023-04-16T02:56:31.423Z,488.0000
2023-04-16T02:57:39.437Z,487.0000
2023-04-16T02:58:47.528Z,483.0000
2023-04-16T02:59:55.574Z,487.0000
2023-04-16T03:01:03.667Z,492.0000
2023-04-16T03:02:11.960Z,495.0000
2023-04-16T03:03:19.818Z,493.0000
2023-04-16T03:04:28.055Z,492.0000
2023-04-16T03:05:35.744Z,499.0000
2023-04-16T03:06:43.969Z,497.0000
2023-04-16T03:07:52.057Z,492.0000
2023-04-16T03:09:00.067Z,488.0000
2023-04-16T03:10:08.123Z,489.0000
2023-04-16T03:11:16.582Z,494.0000
2023-04-16T03:12:24.272Z,492.0000
2023-04-16T03:13:32.334Z,487.0000
2023-04-16T03:14:40.372Z,484.0000
2023-04-16T03:15:48.466Z,485.0000
2023-04-16T03:16:56.460Z,483.0000
2023-04-16T03:18:04.447Z,487.0000
2023-04-16T03:19:12.693Z,489.0000
2023-04-16T03:20:20.620Z,489.0000
2023-04-16T03:21:28.702Z,490.0000
2023-04-16T03:22:36.858Z,491.0000
2023-04-16T03:23:44.984Z,487.0000
2023-04-16T03:24:53.061Z,484.0000
2023-04-16T03:26:00.983Z,482.0000
2023-04-16T03:27:09.083Z,489.0000
2023-04-16T03:28:17.134Z,483.0000
2023-04-16T03:29:25.212Z,484.0000
2023-04-16T03:30:33.363Z,484.0000
2023-04-16T03:31:41.427Z,488.0000
2023-04-16T03:32:49.384Z,489.0000
2023-04-16T03:33:57.504Z,487.0000
2023-04-16T03:35:05.488Z,486.0000
2023-04-16T03:36:13.675Z,480.0000
2023-04-16T03:37:21.799Z,480.0000
2023-04-16T03:38:29.719Z,481.0000
2023-04-16T03:39:37.742Z,480.0000
2023-04-16T03:40:45.813Z,478.0000
2023-04-16T03:41:53.933Z,484.0000
2023-04-16T03:43:01.835Z,481.0000
2023-04-16T03:44:10.005Z,480.0000
2023-04-16T03:45:18.146Z,482.0000
2023-04-16T03:46:26.146Z,486.0000
2023-04-16T03:47:34.416Z,483.0000
2023-04-16T03:48:42.129Z,483.0000
2023-04-16T03:49:50.329Z,485.0000
2023-04-16T03:50:58.349Z,486.0000
2023-04-16T03:52:06.479Z,486.0000
2023-04-16T03:53:14.576Z,483.0000
2023-04-16T03:54:23.075Z,482.0000
2023-04-16T03:55:30.619Z,475.0000
2023-04-16T03:56:38.841Z,472.0000
2023-04-16T03:57:46.732Z,477.0000
2023-04-16T03:58:54.883Z,482.0000
2023-04-16T04:00:02.741Z,485.0000
2023-04-16T04:01:11.166Z,484.0000
2023-04-16T04:02:19.138Z,482.0000
2023-04-16T04:03:27.385Z,483.0000
2023-04-16T04:04:35.395Z,487.0000
2023-04-16T04:05:43.062Z,485.0000
2023-04-16T04:06:51.285Z,485.0000
2023-04-16T04:07:59.574Z,486.0000
2023-04-16T04:09:07.408Z,487.0000
2023-04-16T04:10:15.527Z,487.0000
2023-04-16T04:11:23.344Z,488.0000
2023-04-16T04:12:31.526Z,489.0000
2023-04-16T04:13:39.725Z,487.0000
2023-04-16T04:14:47.656Z,491.0000
2023-04-16T04:15:55.866Z,489.0000
2023-04-16T04:17:03.800Z,486.0000
2023-04-16T04:18:11.749Z,486.0000
2023-04-16T04:19:19.911Z,485.0000
2023-04-16T04:20:28.091Z,489.0000
2023-04-16T04:21:36.138Z,488.0000
2023-04-16T04:22:44.145Z,486.0000
2023-04-16T04:23:52.328Z,483.0000
2023-04-16T04:25:00.482Z,485.0000
2023-04-16T04:26:08.348Z,483.0000
2023-04-16T04:27:16.525Z,483.0000
2023-04-16T04:28:24.481Z,483.0000
2023-04-16T04:29:32.631Z,488.0000
2023-04-16T04:30:40.597Z,491.0000
2023-04-16T04:31:48.628Z,489.0000
2023-04-16T04:32:57.119Z,489.0000
2023-04-16T04:34:04.731Z,493.0000
2023-04-16T04:35:12.817Z,491.0000
2023-04-16T04:36:20.852Z,492.0000
2023-04-16T04:37:28.937Z,488.0000
2023-04-16T04:38:37.024Z,489.0000
2023-04-16T04:39:45.085Z,489.0000
2023-04-16T04:40:53.187Z,488.0000
2023-04-16T04:42:01.195Z,486.0000
2023-04-16T04:43:09.261Z,480.0000
2023-04-16T04:44:17.404Z,478.0000
2023-04-16T04:45:25.538Z,483.0000
2023-04-16T04:46:33.480Z,485.0000
2023-04-16T04:47:41.540Z,484.0000
2023-04-16T04:48:49.482Z,487.0000
2023-04-16T04:49:57.794Z,487.0000
2023-04-16T04:51:05.729Z,487.0000
2023-04-16T04:52:13.692Z,487.0000
2023-04-16T04:53:21.869Z,492.0000
2023-04-16T04:54:29.931Z,484.0000
2023-04-16T04:55:38.075Z,483.0000
2023-04-16T04:56:46.064Z,486.0000
2023-04-16T04:57:54.108Z,482.0000
2023-04-16T04:59:02.203Z,487.0000
2023-04-16T05:00:10.106Z,494.0000
2023-04-16T05:01:18.553Z,488.0000
2023-04-16T05:02:26.499Z,489.0000
2023-04-16T05:03:34.479Z,487.0000
2023-04-16T05:04:42.515Z,483.0000
2023-04-16T05:05:50.457Z,485.0000
2023-04-16T05:06:58.683Z,487.0000
2023-04-16T05:08:06.691Z,490.0000
2023-04-16T05:09:14.819Z,492.0000
2023-04-16T05:10:22.825Z,489.0000
2023-04-16T05:11:30.768Z,483.0000
2023-04-16T05:12:38.990Z,481.0000
2023-04-16T05:13:47.026Z,476.0000
2023-04-16T05:14:55.108Z,477.0000
2023-04-16T05:16:03.116Z,483.0000
2023-04-16T05:17:11.104Z,486.0000
2023-04-16T05:18:19.322Z,482.0000
2023-04-16T05:19:27.559Z,489.0000
2023-04-16T05:20:35.381Z,483.0000
2023-04-16T05:21:43.465Z,485.0000
2023-04-16T05:22:51.431Z,486.0000
2023-04-16T05:23:59.488Z,485.0000
2023-04-16T05:25:07.633Z,490.0000
2023-04-16T05:26:15.749Z,485.0000
2023-04-16T05:27:23.749Z,485.0000
2023-04-16T05:28:31.963Z,485.0000
2023-04-16T05:29:39.954Z,487.0000
2023-04-16T05:30:48.012Z,487.0000
2023-04-16T05:31:55.929Z,484.0000
2023-04-16T05:33:04.103Z,490.0000
2023-04-16T05:34:12.255Z,492.0000
2023-04-16T05:35:20.332Z,485.0000
2023-04-16T05:36:28.285Z,478.0000
2023-04-16T05:37:36.387Z,479.0000
2023-04-16T05:38:44.424Z,479.0000
2023-04-16T05:39:52.482Z,481.0000
2023-04-16T05:41:00.562Z,487.0000
2023-04-16T05:42:08.629Z,490.0000
2023-04-16T05:43:16.669Z,486.0000
2023-04-16T05:44:24.846Z,485.0000
2023-04-16T05:45:32.863Z,482.0000
2023-04-16T05:46:41.041Z,486.0000
2023-04-16T05:47:48.907Z,490.0000
2023-04-16T05:48:56.889Z,489.0000
2023-04-16T05:50:05.016Z,488.0000
2023-04-16T05:51:13.340Z,488.0000
2023-04-16T05:52:21.278Z,480.0000
2023-04-16T05:53:29.349Z,482.0000
2023-04-16T05:54:37.281Z,489.0000
2023-04-16T05:55:45.213Z,485.0000
2023-04-16T05:56:53.431Z,493.0000
2023-04-16T05:58:01.515Z,494.0000
2023-04-16T05:59:09.711Z,494.0000
2023-04-16T06:00:17.429Z,493.0000
2023-04-16T06:01:25.593Z,491.0000
2023-04-16T06:02:33.862Z,485.0000
2023-04-16T06:03:42.003Z,483.0000
2023-04-16T06:04:49.976Z,486.0000
2023-04-16T06:05:57.993Z,482.0000
2023-04-16T06:07:05.950Z,483.0000
2023-04-16T06:08:14.067Z,484.0000
2023-04-16T06:09:22.134Z,485.0000
2023-04-16T06:10:30.144Z,485.0000
2023-04-16T06:11:38.206Z,482.0000
2023-04-16T06:12:46.283Z,485.0000
2023-04-16T06:13:54.343Z,489.0000
2023-04-16T06:15:02.522Z,488.0000
2023-04-16T06:16:10.495Z,486.0000
2023-04-16T06:17:18.534Z,486.0000
2023-04-16T06:18:26.679Z,484.0000
2023-04-16T06:19:34.908Z,481.0000
2023-04-16T06:20:42.619Z,476.0000
2023-04-16T06:21:50.762Z,485.0000
2023-04-16T06:22:58.859Z,481.0000
2023-04-16T06:24:06.889Z,480.0000
2023-04-16T06:25:16.965Z,484.0000
2023-04-16T06:26:27.786Z,480.0000
2023-04-16T06:27:35.941Z,479.0000
2023-04-16T06:28:43.999Z,482.0000
2023-04-16T06:29:52.185Z,481.0000
2023-04-16T06:31:00.184Z,479.0000
2023-04-16T06:32:08.108Z,473.0000
2023-04-16T06:33:16.117Z,485.0000
2023-04-16T06:34:24.272Z,483.0000
2023-04-16T06:35:32.364Z,487.0000
2023-04-16T06:36:40.426Z,487.0000
2023-04-16T06:37:48.611Z,486.0000
2023-04-16T06:38:56.765Z,483.0000
2023-04-16T06:40:04.623Z,488.0000
2023-04-16T06:41:12.965Z,488.0000
2023-04-16T06:42:20.724Z,482.0000
2023-04-16T06:43:28.846Z,484.0000
2023-04-16T06:44:36.863Z,484.0000
2023-04-16T06:45:44.936Z,487.0000
2023-04-16T06:46:53.008Z,486.0000
2023-04-16T06:48:01.233Z,481.0000
2023-04-16T06:49:09.391Z,482.0000
2023-04-16T06:50:17.183Z,477.0000
2023-04-16T06:51:25.260Z,484.0000
2023-04-16T06:52:33.190Z,487.0000
2023-04-16T06:53:41.347Z,489.0000
2023-04-16T06:54:49.528Z,487.0000
2023-04-16T06:55:57.519Z,491.0000
2023-04-16T06:57:05.590Z,486.0000
2023-04-16T06:58:13.495Z,482.0000
2023-04-16T06:59:21.686Z,487.0000
2023-04-16T07:00:29.799Z,488.0000
2023-04-16T07:01:37.778Z,494.0000
2023-04-16T07:02:45.934Z,492.0000
2023-04-16T07:03:54.092Z,492.0000
2023-04-16T07:05:01.953Z,498.0000
2023-04-16T07:06:10.118Z,491.0000
2023-04-16T07:07:18.255Z,487.0000
2023-04-16T07:08:26.445Z,488.0000
2023-04-16T07:09:34.105Z,484.0000
2023-04-16T07:10:42.311Z,482.0000
2023-04-16T07:11:50.422Z,477.0000
2023-04-16T07:12:58.485Z,479.0000
2023-04-16T07:14:06.521Z,484.0000
2023-04-16T07:15:14.773Z,487.0000
2023-04-16T07:16:22.795Z,490.0000
2023-04-16T07:17:30.795Z,485.0000
2023-04-16T07:18:38.788Z,479.0000
2023-04-16T07:19:46.787Z,479.0000
2023-04-16T07:20:54.883Z,489.0000
2023-04-16T07:22:03.007Z,494.0000
2023-04-16T07:23:11.123Z,487.0000
2023-04-16T07:24:18.937Z,482.0000
2023-04-16T07:25:27.131Z,477.0000
2023-04-16T07:26:35.291Z,475.0000
2023-04-16T07:27:43.261Z,475.0000
2023-04-16T07:28:51.410Z,482.0000
2023-04-16T07:29:59.257Z,487.0000
2023-04-16T07:31:07.593Z,485.0000
2023-04-16T07:32:15.962Z,479.0000
2023-04-16T07:33:23.659Z,481.0000
2023-04-16T07:34:31.789Z,482.0000
2023-04-16T07:35:39.674Z,487.0000
2023-04-16T07:36:47.718Z,486.0000
2023-04-16T07:37:55.954Z,488.0000
2023-04-16T07:39:03.989Z,487.0000
2023-04-16T07:40:12.052Z,490.0000
2023-04-16T07:41:20.214Z,478.0000
2023-04-16T07:42:28.128Z,475.0000
2023-04-16T07:43:36.228Z,473.0000
2023-04-16T07:44:44.267Z,478.0000
2023-04-16T07:45:52.454Z,476.0000
2023-04-16T07:47:00.457Z,480.0000
2023-04-16T07:48:08.325Z,482.0000
2023-04-16T07:49:16.562Z,486.0000
2023-04-16T07:50:24.470Z,487.0000
2023-04-16T07:51:32.824Z,480.0000
2023-04-16T07:52:40.666Z,475.0000
2023-04-16T07:53:48.655Z,475.0000
2023-04-16T07:54:56.883Z,478.0000
2023-04-16T07:56:04.778Z,478.0000
2023-04-16T07:57:12.995Z,479.0000
2023-04-16T07:58:21.049Z,479.0000
2023-04-16T07:59:29.468Z,481.0000
2023-04-16T08:00:37.015Z,480.0000
2023-04-16T08:01:45.072Z,479.0000
2023-04-16T08:02:53.389Z,478.0000
2023-04-16T08:04:01.432Z,477.0000
2023-04-16T08:05:09.435Z,482.0000
2023-04-16T08:06:17.463Z,482.0000
2023-04-16T08:07:25.397Z,483.0000
2023-04-16T08:08:33.632Z,480.0000
2023-04-16T08:09:41.679Z,482.0000
2023-04-16T08:10:49.816Z,485.0000
2023-04-16T08:11:57.832Z,488.0000
2023-04-16T08:13:05.841Z,485.0000
2023-04-16T08:14:13.943Z,479.0000
2023-04-16T08:15:21.952Z,479.0000
2023-04-16T08:16:29.957Z,480.0000
2023-04-16T08:17:38.132Z,479.0000
2023-04-16T08:18:45.976Z,482.0000
2023-04-16T08:19:54.103Z,483.0000
2023-04-16T08:21:02.359Z,483.0000
2023-04-16T08:22:10.337Z,479.0000
2023-04-16T08:23:18.366Z,475.0000
2023-04-16T08:24:26.462Z,476.0000
2023-04-16T08:25:34.546Z,474.0000
2023-04-16T08:26:42.558Z,478.0000
2023-04-16T08:27:50.580Z,477.0000
2023-04-16T08:28:58.733Z,471.0000
2023-04-16T08:30:06.755Z,476.0000
2023-04-16T08:31:14.792Z,479.0000
2023-04-16T08:32:22.874Z,477.0000
2023-04-16T08:33:30.787Z,479.0000
2023-04-16T08:34:39.246Z,484.0000
2023-04-16T08:35:47.007Z,484.0000
2023-04-16T08:36:55.164Z,484.0000
2023-04-16T08:38:03.156Z,482.0000
2023-04-16T08:39:11.295Z,481.0000
2023-04-16T08:40:19.301Z,483.0000
2023-04-16T08:41:27.601Z,484.0000
2023-04-16T08:42:35.416Z,485.0000
2023-04-16T08:43:43.448Z,487.0000
2023-04-16T08:44:51.505Z,486.0000
2023-04-16T08:45:59.536Z,479.0000
2023-04-16T08:47:07.673Z,475.0000
2023-04-16T08:48:15.850Z,474.0000
2023-04-16T08:49:23.775Z,479.0000
2023-04-16T08:50:31.709Z,480.0000
2023-04-16T08:51:39.904Z,479.0000
2023-04-16T08:52:47.949Z,478.0000
2023-04-16T08:53:56.234Z,471.0000
2023-04-16T08:55:04.063Z,479.0000
2023-04-16T08:56:12.099Z,479.0000
2023-04-16T08:57:20.167Z,486.0000
2023-04-16T08:58:28.227Z,478.0000
2023-04-16T08:59:36.330Z,478.0000
2023-04-16T09:00:44.343Z,481.0000
2023-04-16T09:01:52.474Z,479.0000
2023-04-16T09:03:00.412Z,478.0000
2023-04-16T09:04:08.715Z,477.0000
2023-04-16T09:05:16.480Z,469.0000
2023-04-16T09:06:24.725Z,472.0000
2023-04-16T09:07:32.840Z,473.0000
2023-04-16T09:08:40.996Z,479.0000
2023-04-16T09:09:48.845Z,478.0000
2023-04-16T09:10:56.800Z,477.0000
2023-04-16T09:12:04.942Z,478.0000
2023-04-16T09:13:13.165Z,480.0000
2023-04-16T09:14:21.042Z,482.0000
2023-04-16T09:15:29.130Z,481.0000
2023-04-16T09:16:37.412Z,474.0000
2023-04-16T09:17:45.307Z,476.0000
2023-04-16T09:18:53.283Z,478.0000
2023-04-16T09:20:01.453Z,479.0000
2023-04-16T09:21:09.378Z,484.0000
2023-04-16T09:22:17.526Z,479.0000
2023-04-16T09:23:25.535Z,475.0000
2023-04-16T09:24:33.718Z,478.0000
2023-04-16T09:25:41.530Z,476.0000
2023-04-16T09:26:49.719Z,476.0000
2023-04-16T09:27:57.852Z,481.0000
2023-04-16T09:29:05.824Z,475.0000
2023-04-16T09:30:13.882Z,476.0000
2023-04-16T09:31:21.984Z,476.0000
2023-04-16T09:32:30.041Z,478.0000
2023-04-16T09:33:38.111Z,475.0000
2023-04-16T09:34:46.005Z,476.0000
2023-04-16T09:35:54.249Z,477.0000
2023-04-16T09:37:02.139Z,478.0000
2023-04-16T09:38:10.302Z,476.0000
2023-04-16T09:39:18.435Z,488.0000
2023-04-16T09:40:26.540Z,487.0000
2023-04-16T09:41:34.501Z,486.0000
2023-04-16T09:42:42.431Z,479.0000
2023-04-16T09:43:50.622Z,483.0000
2023-04-16T09:45:00.820Z,477.0000
2023-04-16T09:46:11.645Z,480.0000
2023-04-16T09:47:19.677Z,480.0000
2023-04-16T09:48:27.698Z,477.0000
2023-04-16T09:49:35.801Z,479.0000
2023-04-16T09:50:43.873Z,474.0000
2023-04-16T09:51:51.890Z,474.0000
2023-04-16T09:52:59.945Z,475.0000
2023-04-16T09:54:08.089Z,478.0000
2023-04-16T09:55:16.074Z,480.0000
2023-04-16T09:56:24.192Z,480.0000
2023-04-16T09:57:32.253Z,483.0000
2023-04-16T09:58:40.226Z,492.0000
2023-04-16T09:59:48.322Z,516.0000
2023-04-16T10:00:56.421Z,501.0000
2023-04-16T10:02:14.343Z,494.0000
2023-04-16T10:03:17.311Z,482.0000
2023-04-16T10:04:25.429Z,484.0000
2023-04-16T10:05:33.549Z,486.0000
2023-04-16T10:06:41.611Z,490.0000
2023-04-16T10:07:49.670Z,485.0000
2023-04-16T10:08:57.839Z,487.0000
2023-04-16T10:10:05.721Z,488.0000
2023-04-16T10:11:13.901Z,488.0000
2023-04-16T10:12:21.820Z,488.0000
2023-04-16T10:13:29.941Z,486.0000
2023-04-16T10:14:37.925Z,491.0000
2023-04-16T10:15:45.906Z,494.0000
2023-04-16T10:16:54.169Z,493.0000
2023-04-16T10:18:02.216Z,499.0000
2023-04-16T10:19:10.418Z,502.0000
2023-04-16T10:20:18.340Z,495.0000
2023-04-16T10:21:26.474Z,486.0000
2023-04-16T10:22:34.392Z,489.0000
2023-04-16T10:23:42.480Z,474.0000
2023-04-16T10:24:50.560Z,477.0000
2023-04-16T10:25:58.588Z,483.0000
2023-04-16T10:27:06.653Z,486.0000
2023-04-16T10:28:14.689Z,485.0000
2023-04-16T10:29:22.641Z,484.0000
2023-04-16T10:30:30.866Z,489.0000
2023-04-16T10:31:38.896Z,489.0000
2023-04-16T10:32:46.936Z,488.0000
2023-04-16T10:33:55.045Z,484.0000
2023-04-16T10:35:03.099Z,485.0000
2023-04-16T10:36:11.411Z,485.0000
2023-04-16T10:37:19.129Z,484.0000
2023-04-16T10:38:27.270Z,488.0000
2023-04-16T10:39:35.318Z,489.0000
2023-04-16T10:40:43.231Z,495.0000
2023-04-16T10:41:51.431Z,497.0000
2023-04-16T10:42:59.508Z,497.0000
2023-04-16T10:44:07.569Z,497.0000
2023-04-16T10:45:15.591Z,492.0000
2023-04-16T10:46:23.777Z,491.0000
2023-04-16T10:47:31.892Z,493.0000
2023-04-16T10:48:49.924Z,497.0000
2023-04-16T10:49:52.728Z,505.0000
2023-04-16T10:51:00.764Z,498.0000
2023-04-16T10:52:08.864Z,500.0000
2023-04-16T10:53:16.908Z,501.0000
2023-04-16T10:54:24.951Z,493.0000
2023-04-16T10:55:32.875Z,486.0000
2023-04-16T10:56:41.178Z,482.0000
2023-04-16T10:57:49.157Z,484.0000
2023-04-16T10:58:57.244Z,482.0000
2023-04-16T11:00:05.099Z,492.0000
2023-04-16T11:01:13.434Z,494.0000
2023-04-16T11:02:21.548Z,486.0000
2023-04-16T11:03:29.492Z,489.0000
2023-04-16T11:04:37.704Z,488.0000
2023-04-16T11:05:45.521Z,493.0000
2023-04-16T11:06:53.462Z,493.0000
2023-04-16T11:08:01.647Z,495.0000
2023-04-16T11:09:09.907Z,502.0000
2023-04-16T11:10:17.803Z,495.0000
2023-04-16T11:11:25.774Z,493.0000
2023-04-16T11:12:33.854Z,482.0000
2023-04-16T11:13:43.501Z,488.0000
2023-04-16T11:14:49.919Z,483.0000
2023-04-16T11:15:58.113Z,495.0000
2023-04-16T11:17:06.092Z,497.0000
2023-04-16T11:18:14.179Z,508.0000
2023-04-16T11:19:22.085Z,505.0000
2023-04-16T11:20:30.273Z,488.0000
2023-04-16T11:21:38.389Z,486.0000
2023-04-16T11:22:46.420Z,485.0000
2023-04-16T11:23:54.336Z,479.0000
2023-04-16T11:25:02.513Z,481.0000
2023-04-16T11:26:10.613Z,482.0000
2023-04-16T11:27:18.562Z,483.0000
2023-04-16T11:28:26.833Z,487.0000
2023-04-16T11:29:34.781Z,486.0000
2023-04-16T11:30:42.820Z,488.0000
2023-04-16T11:31:50.997Z,495.0000
2023-04-16T11:32:59.035Z,494.0000
2023-04-16T11:34:07.027Z,490.0000
2023-04-16T11:35:15.072Z,490.0000
2023-04-16T11:36:24.794Z,483.0000
2023-04-16T11:37:36.085Z,490.0000
2023-04-16T11:38:44.187Z,495.0000
2023-04-16T11:39:52.281Z,498.0000
2023-04-16T11:41:00.311Z,503.0000
2023-04-16T11:42:08.412Z,507.0000
2023-04-16T11:43:16.525Z,500.0000
2023-04-16T11:44:24.548Z,497.0000
2023-04-16T11:45:32.684Z,499.0000
2023-04-16T11:46:40.724Z,498.0000
2023-04-16T11:47:48.736Z,493.0000
2023-04-16T11:48:57.006Z,495.0000
2023-04-16T11:50:04.919Z,493.0000
2023-04-16T11:51:12.739Z,489.0000
2023-04-16T11:52:20.950Z,486.0000
2023-04-16T11:53:29.045Z,490.0000
2023-04-16T11:54:37.001Z,500.0000
2023-04-16T11:55:45.183Z,502.0000
2023-04-16T11:56:53.164Z,507.0000
2023-04-16T11:58:01.259Z,504.0000
2023-04-16T11:59:09.539Z,503.0000
2023-04-16T12:00:17.237Z,504.0000
2023-04-16T12:01:25.455Z,506.0000
2023-04-16T12:02:33.616Z,497.0000
2023-04-16T12:03:41.847Z,502.0000
2023-04-16T12:04:49.578Z,505.0000
2023-04-16T12:05:57.649Z,506.0000
2023-04-16T12:07:05.764Z,506.0000
2023-04-16T12:08:13.639Z,504.0000
2023-04-16T12:09:21.838Z,499.0000
2023-04-16T12:10:29.859Z,497.0000
2023-04-16T12:11:37.973Z,489.0000
2023-04-16T12:12:46.194Z,493.0000
2023-04-16T12:13:54.051Z,489.0000
2023-04-16T12:15:02.126Z,488.0000
2023-04-16T12:16:10.225Z,488.0000
2023-04-16T12:17:18.275Z,504.0000
2023-04-16T12:18:26.361Z,505.0000
2023-04-16T12:19:34.378Z,504.0000
2023-04-16T12:20:42.437Z,501.0000
2023-04-16T12:21:50.517Z,507.0000
2023-04-16T12:22:58.498Z,506.0000
2023-04-16T12:24:06.648Z,504.0000
2023-04-16T12:25:14.579Z,505.0000
2023-04-16T12:26:22.777Z,509.0000
2023-04-16T12:27:30.786Z,508.0000
2023-04-16T12:28:38.815Z,506.0000
2023-04-16T12:29:46.952Z,506.0000
2023-04-16T12:30:54.974Z,499.0000
2023-04-16T12:32:03.016Z,496.0000
2023-04-16T12:33:11.147Z,493.0000
2023-04-16T12:34:19.003Z,492.0000
2023-04-16T12:35:27.252Z,502.0000
2023-04-16T12:36:35.235Z,506.0000
2023-04-16T12:37:43.307Z,507.0000
2023-04-16T12:38:51.376Z,508.0000
2023-04-16T12:39:59.572Z,504.0000
2023-04-16T12:41:07.532Z,508.0000
2023-04-16T12:42:15.561Z,511.0000
2023-04-16T12:43:23.620Z,517.0000
2023-04-16T12:44:31.669Z,520.0000
2023-04-16T12:45:39.725Z,513.0000
2023-04-16T12:46:47.895Z,508.0000
2023-04-16T12:47:55.970Z,502.0000
2023-04-16T12:49:04.029Z,493.0000
2023-04-16T12:50:11.930Z,495.0000
2023-04-16T12:51:20.049Z,498.0000
2023-04-16T12:52:28.146Z,492.0000
2023-04-16T12:53:36.168Z,490.0000
2023-04-16T12:54:44.207Z,497.0000
2023-04-16T12:55:52.260Z,493.0000
2023-04-16T12:57:00.464Z,500.0000
2023-04-16T12:58:09.775Z,505.0000
2023-04-16T12:59:16.322Z,500.0000
2023-04-16T13:00:24.491Z,498.0000
2023-04-16T13:01:32.578Z,501.0000
2023-04-16T13:02:40.829Z,502.0000
2023-04-16T13:03:48.924Z,504.0000
2023-04-16T13:04:56.706Z,516.0000
2023-04-16T13:06:04.679Z,520.0000
2023-04-16T13:07:13.021Z,503.0000
2023-04-16T13:08:20.932Z,495.0000
2023-04-16T13:09:29.084Z,500.0000
2023-04-16T13:10:37.035Z,506.0000
2023-04-16T13:11:45.108Z,504.0000
2023-04-16T13:12:53.221Z,508.0000
2023-04-16T13:14:01.189Z,504.0000
2023-04-16T13:15:09.304Z,511.0000
2023-04-16T13:16:17.393Z,513.0000
2023-04-16T13:17:25.269Z,507.0000
2023-04-16T13:18:33.563Z,507.0000
2023-04-16T13:19:41.493Z,508.0000